This is the latest recevied weather packets stored in our database for station/object OE-11343. If no packets are shown the sender has not sent any weather packets the latest 10 day(s).
| Time | Temp. | Humidity | Pressure | Rain* | Wind** | Luminosity | Snow |
|---|---|---|---|---|---|---|---|
| 1787793925 | 6.11° C | 80% | 717.5 hPa | - | - | 0 W/m² | - |
| 1787793098 | 7.22° C | 62% | 717.4 hPa | - | - | 0 W/m² | - |
| 1787792725 | 6.67° C | 72% | 717.1 hPa | - | - | 0 W/m² | - |
| 1787792125 | 6.67° C | 64% | 717.2 hPa | - | - | 0 W/m² | - |
| 1787791298 | 6.67° C | 73% | 717.2 hPa | - | - | 0 W/m² | - |
| 1787790925 | 6.11° C | 73% | 717 hPa | - | - | 0 W/m² | - |
| 1787790325 | 5.56° C | 90% | 717.1 hPa | - | - | 0 W/m² | - |
| 1787789497 | 5.56° C | 100% | 717.1 hPa | - | - | 0 W/m² | - |
| 1787789125 | 5.56° C | 100% | 717 hPa | - | - | 0 W/m² | - |
| 1787788525 | 5.56° C | 99% | 717.1 hPa | - | - | 0 W/m² | - |
| 1787787698 | 5.56° C | 99% | 717.1 hPa | - | - | 0 W/m² | - |
| 1787787325 | 5.56° C | 100% | 717.4 hPa | - | - | 0 W/m² | - |
| 1787786725 | 5.56° C | 100% | 717.1 hPa | - | - | 0 W/m² | - |
| 1787786124 | 5.56° C | 98% | 717.1 hPa | - | - | 0 W/m² | - |
| 1787785525 | 5.56° C | 99% | 717.4 hPa | - | - | 0 W/m² | - |
| 1787784925 | 5.56° C | 100% | 717.4 hPa | - | - | 0 W/m² | - |
| 1787784098 | 5.56° C | 100% | 717 hPa | - | - | 0 W/m² | - |
| 1787783725 | 6.11° C | 100% | 716.8 hPa | - | - | 0 W/m² | - |
| 1787783124 | 5.56° C | 100% | 716.9 hPa | - | - | 0 W/m² | - |
| 1787782299 | 6.11° C | 100% | 716.9 hPa | - | - | 0 W/m² | - |
| 1787781925 | 6.11° C | 100% | 717.4 hPa | - | - | 0 W/m² | - |
| 1787781324 | 6.11° C | 100% | 717.4 hPa | - | - | 0 W/m² | - |
| 1787780499 | 6.11° C | 100% | 717.4 hPa | - | - | 0 W/m² | - |
| 1787780125 | 5.56° C | 100% | 717.4 hPa | - | - | 0 W/m² | - |
| 1787779524 | 6.11° C | 100% | 717.1 hPa | - | - | 0 W/m² | - |
* Rain since midnight (hover to see other rain measurements)
** Current wind speed in m/s (hover to see current wind gust speed)